sensor_id;sensor_type;location;lat;lon;timestamp;P1;durP1;ratioP1;P2;durP2;ratioP2
13720;SDS011;6932;51.438;5.470;2022-08-30T00:01:04;6.83;;;3.63;;
13720;SDS011;6932;51.438;5.470;2022-08-30T00:03:32;7.03;;;3.87;;
13720;SDS011;6932;51.438;5.470;2022-08-30T00:06:10;6.67;;;3.87;;
13720;SDS011;6932;51.438;5.470;2022-08-30T00:08:42;6.73;;;3.50;;
13720;SDS011;6932;51.438;5.470;2022-08-30T00:11:10;8.47;;;3.80;;
13720;SDS011;6932;51.438;5.470;2022-08-30T00:13:40;6.63;;;3.87;;
13720;SDS011;6932;51.438;5.470;2022-08-30T00:16:08;8.87;;;4.00;;
13720;SDS011;6932;51.438;5.470;2022-08-30T00:18:36;6.47;;;3.70;;
13720;SDS011;6932;51.438;5.470;2022-08-30T00:21:04;6.50;;;3.30;;
13720;SDS011;6932;51.438;5.470;2022-08-30T00:23:30;6.77;;;3.80;;
13720;SDS011;6932;51.438;5.470;2022-08-30T00:25:57;6.43;;;3.63;;
13720;SDS011;6932;51.438;5.470;2022-08-30T00:28:23;7.43;;;3.70;;
13720;SDS011;6932;51.438;5.470;2022-08-30T00:30:49;5.67;;;3.60;;
13720;SDS011;6932;51.438;5.470;2022-08-30T00:33:15;6.30;;;3.50;;
13720;SDS011;6932;51.438;5.470;2022-08-30T00:35:41;6.93;;;3.50;;
13720;SDS011;6932;51.438;5.470;2022-08-30T00:38:08;7.33;;;3.20;;
13720;SDS011;6932;51.438;5.470;2022-08-30T00:40:38;6.87;;;3.70;;
13720;SDS011;6932;51.438;5.470;2022-08-30T00:43:07;5.33;;;3.33;;
13720;SDS011;6932;51.438;5.470;2022-08-30T00:45:40;6.03;;;3.70;;
13720;SDS011;6932;51.438;5.470;2022-08-30T00:48:06;6.37;;;3.60;;
13720;SDS011;6932;51.438;5.470;2022-08-30T00:50:34;6.70;;;3.67;;
13720;SDS011;6932;51.438;5.470;2022-08-30T00:53:08;6.53;;;3.63;;
13720;SDS011;6932;51.438;5.470;2022-08-30T00:55:41;6.17;;;3.67;;
13720;SDS011;6932;51.438;5.470;2022-08-30T00:58:09;7.43;;;3.40;;
13720;SDS011;6932;51.438;5.470;2022-08-30T01:00:43;9.17;;;3.73;;
13720;SDS011;6932;51.438;5.470;2022-08-30T01:03:09;6.83;;;3.70;;
13720;SDS011;6932;51.438;5.470;2022-08-30T01:05:36;8.77;;;3.63;;
13720;SDS011;6932;51.438;5.470;2022-08-30T01:08:03;5.93;;;3.60;;
13720;SDS011;6932;51.438;5.470;2022-08-30T01:10:32;5.27;;;3.40;;
13720;SDS011;6932;51.438;5.470;2022-08-30T01:13:00;6.13;;;3.20;;
13720;SDS011;6932;51.438;5.470;2022-08-30T01:15:27;7.80;;;3.80;;
13720;SDS011;6932;51.438;5.470;2022-08-30T01:17:55;6.23;;;3.30;;
13720;SDS011;6932;51.438;5.470;2022-08-30T01:23:32;7.90;;;3.83;;
13720;SDS011;6932;51.438;5.470;2022-08-30T01:26:02;5.97;;;3.33;;
13720;SDS011;6932;51.438;5.470;2022-08-30T01:28:30;6.70;;;3.47;;
13720;SDS011;6932;51.438;5.470;2022-08-30T01:30:57;6.27;;;3.60;;
13720;SDS011;6932;51.438;5.470;2022-08-30T01:33:23;5.37;;;3.40;;
13720;SDS011;6932;51.438;5.470;2022-08-30T01:38:26;7.03;;;3.57;;
13720;SDS011;6932;51.438;5.470;2022-08-30T01:41:06;8.43;;;3.60;;
13720;SDS011;6932;51.438;5.470;2022-08-30T01:43:49;9.87;;;3.60;;
13720;SDS011;6932;51.438;5.470;2022-08-30T01:46:19;6.23;;;3.77;;
13720;SDS011;6932;51.438;5.470;2022-08-30T01:48:48;6.07;;;3.90;;
13720;SDS011;6932;51.438;5.470;2022-08-30T01:51:16;7.80;;;3.43;;
13720;SDS011;6932;51.438;5.470;2022-08-30T01:53:42;7.40;;;3.60;;
13720;SDS011;6932;51.438;5.470;2022-08-30T01:56:10;6.53;;;3.67;;
13720;SDS011;6932;51.438;5.470;2022-08-30T01:58:37;7.33;;;3.63;;
13720;SDS011;6932;51.438;5.470;2022-08-30T02:01:05;7.53;;;3.83;;
13720;SDS011;6932;51.438;5.470;2022-08-30T02:03:39;5.73;;;3.60;;
13720;SDS011;6932;51.438;5.470;2022-08-30T02:06:10;7.03;;;3.63;;
13720;SDS011;6932;51.438;5.470;2022-08-30T02:08:40;6.87;;;3.50;;
13720;SDS011;6932;51.438;5.470;2022-08-30T02:11:07;7.27;;;3.77;;
13720;SDS011;6932;51.438;5.470;2022-08-30T02:13:35;5.37;;;3.60;;
13720;SDS011;6932;51.438;5.470;2022-08-30T02:16:06;5.37;;;3.43;;
13720;SDS011;6932;51.438;5.470;2022-08-30T02:18:35;6.00;;;3.60;;
13720;SDS011;6932;51.438;5.470;2022-08-30T02:21:03;5.73;;;3.83;;
13720;SDS011;6932;51.438;5.470;2022-08-30T02:23:30;8.47;;;4.40;;
13720;SDS011;6932;51.438;5.470;2022-08-30T02:25:56;6.67;;;3.70;;
13720;SDS011;6932;51.438;5.470;2022-08-30T02:28:23;4.73;;;3.50;;
13720;SDS011;6932;51.438;5.470;2022-08-30T02:30:50;7.17;;;3.70;;
13720;SDS011;6932;51.438;5.470;2022-08-30T02:33:16;6.93;;;4.00;;
13720;SDS011;6932;51.438;5.470;2022-08-30T02:35:42;5.67;;;3.70;;
13720;SDS011;6932;51.438;5.470;2022-08-30T02:38:08;7.20;;;3.90;;
13720;SDS011;6932;51.438;5.470;2022-08-30T02:40:34;6.07;;;4.13;;
13720;SDS011;6932;51.438;5.470;2022-08-30T02:43:00;7.20;;;4.30;;
13720;SDS011;6932;51.438;5.470;2022-08-30T02:45:26;6.27;;;4.20;;
13720;SDS011;6932;51.438;5.470;2022-08-30T02:47:53;7.30;;;4.03;;
13720;SDS011;6932;51.438;5.470;2022-08-30T02:50:20;6.17;;;3.83;;
13720;SDS011;6932;51.438;5.470;2022-08-30T02:52:47;7.10;;;4.10;;
13720;SDS011;6932;51.438;5.470;2022-08-30T02:55:13;4.73;;;3.73;;
13720;SDS011;6932;51.438;5.470;2022-08-30T02:57:40;7.50;;;4.30;;
13720;SDS011;6932;51.438;5.470;2022-08-30T03:00:07;7.33;;;4.07;;
13720;SDS011;6932;51.438;5.470;2022-08-30T03:02:38;6.00;;;4.00;;
13720;SDS011;6932;51.438;5.470;2022-08-30T03:05:04;5.60;;;4.17;;
13720;SDS011;6932;51.438;5.470;2022-08-30T03:07:32;5.87;;;4.10;;
13720;SDS011;6932;51.438;5.470;2022-08-30T03:09:58;7.27;;;4.27;;
13720;SDS011;6932;51.438;5.470;2022-08-30T03:12:24;8.03;;;4.20;;
13720;SDS011;6932;51.438;5.470;2022-08-30T03:14:50;6.23;;;4.27;;
13720;SDS011;6932;51.438;5.470;2022-08-30T03:17:17;7.77;;;4.50;;
13720;SDS011;6932;51.438;5.470;2022-08-30T03:19:43;9.07;;;4.83;;
13720;SDS011;6932;51.438;5.470;2022-08-30T03:22:10;5.57;;;3.90;;
13720;SDS011;6932;51.438;5.470;2022-08-30T03:24:36;7.27;;;4.37;;
13720;SDS011;6932;51.438;5.470;2022-08-30T03:27:02;5.10;;;4.00;;
13720;SDS011;6932;51.438;5.470;2022-08-30T03:29:28;6.87;;;4.50;;
13720;SDS011;6932;51.438;5.470;2022-08-30T03:31:55;7.07;;;4.53;;
13720;SDS011;6932;51.438;5.470;2022-08-30T03:34:22;6.33;;;4.37;;
13720;SDS011;6932;51.438;5.470;2022-08-30T03:36:50;5.57;;;4.30;;
13720;SDS011;6932;51.438;5.470;2022-08-30T03:39:19;7.17;;;4.27;;
13720;SDS011;6932;51.438;5.470;2022-08-30T03:41:47;6.10;;;3.90;;
13720;SDS011;6932;51.438;5.470;2022-08-30T03:44:13;5.77;;;4.03;;
13720;SDS011;6932;51.438;5.470;2022-08-30T03:46:39;6.80;;;4.30;;
13720;SDS011;6932;51.438;5.470;2022-08-30T03:49:05;6.53;;;4.17;;
13720;SDS011;6932;51.438;5.470;2022-08-30T03:51:33;6.53;;;4.23;;
13720;SDS011;6932;51.438;5.470;2022-08-30T03:53:59;6.47;;;4.30;;
13720;SDS011;6932;51.438;5.470;2022-08-30T03:56:25;7.00;;;4.50;;
13720;SDS011;6932;51.438;5.470;2022-08-30T03:58:51;8.83;;;4.60;;
13720;SDS011;6932;51.438;5.470;2022-08-30T04:01:17;6.80;;;4.70;;
13720;SDS011;6932;51.438;5.470;2022-08-30T04:03:43;6.40;;;4.60;;
13720;SDS011;6932;51.438;5.470;2022-08-30T04:06:09;5.83;;;4.27;;
13720;SDS011;6932;51.438;5.470;2022-08-30T04:08:35;6.53;;;4.50;;
13720;SDS011;6932;51.438;5.470;2022-08-30T04:11:01;7.27;;;4.30;;
13720;SDS011;6932;51.438;5.470;2022-08-30T04:13:27;6.80;;;4.27;;
13720;SDS011;6932;51.438;5.470;2022-08-30T04:15:53;6.93;;;4.30;;
13720;SDS011;6932;51.438;5.470;2022-08-30T04:18:19;5.50;;;4.20;;
13720;SDS011;6932;51.438;5.470;2022-08-30T04:20:46;6.20;;;4.40;;
13720;SDS011;6932;51.438;5.470;2022-08-30T04:23:12;6.97;;;4.60;;
13720;SDS011;6932;51.438;5.470;2022-08-30T04:25:39;8.10;;;4.53;;
13720;SDS011;6932;51.438;5.470;2022-08-30T04:28:06;6.57;;;4.50;;
13720;SDS011;6932;51.438;5.470;2022-08-30T04:30:33;6.33;;;4.20;;
13720;SDS011;6932;51.438;5.470;2022-08-30T04:33:04;7.13;;;4.23;;
13720;SDS011;6932;51.438;5.470;2022-08-30T04:35:30;8.47;;;4.70;;
13720;SDS011;6932;51.438;5.470;2022-08-30T04:37:56;5.93;;;4.43;;
13720;SDS011;6932;51.438;5.470;2022-08-30T04:40:21;8.00;;;4.57;;
13720;SDS011;6932;51.438;5.470;2022-08-30T04:42:47;8.33;;;4.83;;
13720;SDS011;6932;51.438;5.470;2022-08-30T04:45:18;6.27;;;4.43;;
13720;SDS011;6932;51.438;5.470;2022-08-30T04:47:45;6.83;;;4.73;;
13720;SDS011;6932;51.438;5.470;2022-08-30T04:50:13;6.97;;;4.70;;
13720;SDS011;6932;51.438;5.470;2022-08-30T04:52:42;7.13;;;4.73;;
13720;SDS011;6932;51.438;5.470;2022-08-30T04:55:09;7.73;;;4.80;;
13720;SDS011;6932;51.438;5.470;2022-08-30T04:57:35;6.83;;;4.80;;
13720;SDS011;6932;51.438;5.470;2022-08-30T05:00:05;7.67;;;4.60;;
13720;SDS011;6932;51.438;5.470;2022-08-30T05:02:35;7.03;;;4.80;;
13720;SDS011;6932;51.438;5.470;2022-08-30T05:05:02;6.83;;;4.67;;
13720;SDS011;6932;51.438;5.470;2022-08-30T05:07:48;7.27;;;5.10;;
13720;SDS011;6932;51.438;5.470;2022-08-30T05:10:14;8.90;;;5.40;;
13720;SDS011;6932;51.438;5.470;2022-08-30T05:12:40;7.93;;;5.20;;
13720;SDS011;6932;51.438;5.470;2022-08-30T05:15:07;7.37;;;4.83;;
13720;SDS011;6932;51.438;5.470;2022-08-30T05:17:35;7.00;;;5.10;;
13720;SDS011;6932;51.438;5.470;2022-08-30T05:20:03;7.03;;;4.90;;
13720;SDS011;6932;51.438;5.470;2022-08-30T05:22:30;6.63;;;4.83;;
13720;SDS011;6932;51.438;5.470;2022-08-30T05:24:57;8.57;;;4.97;;
13720;SDS011;6932;51.438;5.470;2022-08-30T05:27:23;7.07;;;4.70;;
13720;SDS011;6932;51.438;5.470;2022-08-30T05:29:49;8.33;;;4.97;;
13720;SDS011;6932;51.438;5.470;2022-08-30T05:32:15;7.07;;;4.83;;
13720;SDS011;6932;51.438;5.470;2022-08-30T05:34:42;9.13;;;5.20;;
13720;SDS011;6932;51.438;5.470;2022-08-30T05:37:08;7.00;;;5.10;;
13720;SDS011;6932;51.438;5.470;2022-08-30T05:39:34;8.17;;;5.40;;
13720;SDS011;6932;51.438;5.470;2022-08-30T05:42:00;7.80;;;5.10;;
13720;SDS011;6932;51.438;5.470;2022-08-30T05:44:26;8.67;;;5.50;;
13720;SDS011;6932;51.438;5.470;2022-08-30T05:46:52;7.73;;;5.03;;
13720;SDS011;6932;51.438;5.470;2022-08-30T05:49:17;8.23;;;5.40;;
13720;SDS011;6932;51.438;5.470;2022-08-30T05:51:43;6.83;;;5.30;;
13720;SDS011;6932;51.438;5.470;2022-08-30T05:54:10;8.17;;;5.50;;
13720;SDS011;6932;51.438;5.470;2022-08-30T05:56:39;8.93;;;5.77;;
13720;SDS011;6932;51.438;5.470;2022-08-30T05:59:09;8.43;;;5.40;;
13720;SDS011;6932;51.438;5.470;2022-08-30T06:01:38;8.33;;;5.50;;
13720;SDS011;6932;51.438;5.470;2022-08-30T06:04:09;8.63;;;5.57;;
13720;SDS011;6932;51.438;5.470;2022-08-30T06:06:37;8.17;;;5.50;;
13720;SDS011;6932;51.438;5.470;2022-08-30T06:09:06;8.00;;;5.63;;
13720;SDS011;6932;51.438;5.470;2022-08-30T06:11:34;8.90;;;5.80;;
13720;SDS011;6932;51.438;5.470;2022-08-30T06:14:00;7.90;;;5.50;;
13720;SDS011;6932;51.438;5.470;2022-08-30T06:16:28;8.93;;;5.80;;
13720;SDS011;6932;51.438;5.470;2022-08-30T06:18:55;9.60;;;5.67;;
13720;SDS011;6932;51.438;5.470;2022-08-30T06:21:23;7.77;;;5.70;;
13720;SDS011;6932;51.438;5.470;2022-08-30T06:23:51;7.87;;;5.60;;
13720;SDS011;6932;51.438;5.470;2022-08-30T06:26:18;8.17;;;5.37;;
13720;SDS011;6932;51.438;5.470;2022-08-30T06:28:45;9.07;;;5.40;;
13720;SDS011;6932;51.438;5.470;2022-08-30T06:31:12;8.10;;;5.50;;
13720;SDS011;6932;51.438;5.470;2022-08-30T06:33:40;9.13;;;5.50;;
13720;SDS011;6932;51.438;5.470;2022-08-30T06:36:08;9.13;;;5.50;;
13720;SDS011;6932;51.438;5.470;2022-08-30T06:38:37;9.03;;;5.77;;
13720;SDS011;6932;51.438;5.470;2022-08-30T06:41:07;8.47;;;5.77;;
13720;SDS011;6932;51.438;5.470;2022-08-30T06:43:39;7.47;;;5.77;;
13720;SDS011;6932;51.438;5.470;2022-08-30T06:46:08;8.67;;;5.73;;
13720;SDS011;6932;51.438;5.470;2022-08-30T06:48:37;9.97;;;6.03;;
13720;SDS011;6932;51.438;5.470;2022-08-30T06:51:03;8.27;;;5.83;;
13720;SDS011;6932;51.438;5.470;2022-08-30T06:53:30;10.17;;;5.70;;
13720;SDS011;6932;51.438;5.470;2022-08-30T06:56:03;9.23;;;5.77;;
13720;SDS011;6932;51.438;5.470;2022-08-30T06:58:33;8.97;;;5.87;;
13720;SDS011;6932;51.438;5.470;2022-08-30T07:01:00;9.67;;;5.70;;
13720;SDS011;6932;51.438;5.470;2022-08-30T07:03:29;9.47;;;5.83;;
13720;SDS011;6932;51.438;5.470;2022-08-30T07:05:55;9.20;;;5.87;;
13720;SDS011;6932;51.438;5.470;2022-08-30T07:08:22;9.60;;;5.37;;
13720;SDS011;6932;51.438;5.470;2022-08-30T07:10:49;10.80;;;6.13;;
13720;SDS011;6932;51.438;5.470;2022-08-30T07:13:18;7.17;;;5.60;;
13720;SDS011;6932;51.438;5.470;2022-08-30T07:15:46;8.30;;;5.60;;
13720;SDS011;6932;51.438;5.470;2022-08-30T07:18:12;7.80;;;5.80;;
13720;SDS011;6932;51.438;5.470;2022-08-30T07:21:06;8.50;;;5.57;;
13720;SDS011;6932;51.438;5.470;2022-08-30T07:23:49;8.03;;;5.33;;
13720;SDS011;6932;51.438;5.470;2022-08-30T07:26:17;8.20;;;5.47;;
13720;SDS011;6932;51.438;5.470;2022-08-30T07:28:51;8.93;;;5.73;;
13720;SDS011;6932;51.438;5.470;2022-08-30T07:31:18;7.13;;;5.17;;
13720;SDS011;6932;51.438;5.470;2022-08-30T07:33:45;8.30;;;5.60;;
13720;SDS011;6932;51.438;5.470;2022-08-30T07:36:12;7.30;;;5.30;;
13720;SDS011;6932;51.438;5.470;2022-08-30T07:38:39;8.23;;;5.67;;
13720;SDS011;6932;51.438;5.470;2022-08-30T07:41:05;8.67;;;5.70;;
13720;SDS011;6932;51.438;5.470;2022-08-30T07:43:32;6.33;;;4.87;;
13720;SDS011;6932;51.438;5.470;2022-08-30T07:46:04;7.23;;;5.17;;
13720;SDS011;6932;51.438;5.470;2022-08-30T07:48:32;8.37;;;5.50;;
13720;SDS011;6932;51.438;5.470;2022-08-30T07:50:59;7.80;;;5.00;;
13720;SDS011;6932;51.438;5.470;2022-08-30T07:53:25;6.63;;;5.00;;
13720;SDS011;6932;51.438;5.470;2022-08-30T07:55:51;8.80;;;5.10;;
13720;SDS011;6932;51.438;5.470;2022-08-30T07:58:18;8.20;;;4.90;;
13720;SDS011;6932;51.438;5.470;2022-08-30T08:00:44;7.47;;;4.90;;
13720;SDS011;6932;51.438;5.470;2022-08-30T08:03:10;9.10;;;4.70;;
13720;SDS011;6932;51.438;5.470;2022-08-30T08:05:37;7.30;;;4.80;;
13720;SDS011;6932;51.438;5.470;2022-08-30T08:08:06;7.90;;;4.80;;
13720;SDS011;6932;51.438;5.470;2022-08-30T08:10:34;6.53;;;4.63;;
13720;SDS011;6932;51.438;5.470;2022-08-30T08:13:02;6.43;;;4.50;;
13720;SDS011;6932;51.438;5.470;2022-08-30T08:15:28;6.20;;;4.60;;
13720;SDS011;6932;51.438;5.470;2022-08-30T08:17:54;6.13;;;4.50;;
13720;SDS011;6932;51.438;5.470;2022-08-30T08:20:20;6.90;;;4.50;;
13720;SDS011;6932;51.438;5.470;2022-08-30T08:22:47;5.93;;;4.50;;
13720;SDS011;6932;51.438;5.470;2022-08-30T08:25:13;6.87;;;4.90;;
13720;SDS011;6932;51.438;5.470;2022-08-30T08:27:39;7.93;;;4.63;;
13720;SDS011;6932;51.438;5.470;2022-08-30T08:30:06;5.67;;;4.50;;
13720;SDS011;6932;51.438;5.470;2022-08-30T08:32:32;6.63;;;4.40;;
13720;SDS011;6932;51.438;5.470;2022-08-30T08:34:58;5.70;;;4.20;;
13720;SDS011;6932;51.438;5.470;2022-08-30T08:37:24;6.70;;;4.47;;
13720;SDS011;6932;51.438;5.470;2022-08-30T08:39:51;6.17;;;4.40;;
13720;SDS011;6932;51.438;5.470;2022-08-30T08:51:32;7.80;;;4.07;;
13720;SDS011;6932;51.438;5.470;2022-08-30T08:57:30;5.50;;;4.17;;
13720;SDS011;6932;51.438;5.470;2022-08-30T08:59:59;5.10;;;4.00;;
13720;SDS011;6932;51.438;5.470;2022-08-30T09:02:38;6.40;;;4.10;;
13720;SDS011;6932;51.438;5.470;2022-08-30T09:05:13;6.90;;;4.10;;
13720;SDS011;6932;51.438;5.470;2022-08-30T09:07:47;5.97;;;3.90;;
13720;SDS011;6932;51.438;5.470;2022-08-30T09:10:21;5.60;;;3.70;;
13720;SDS011;6932;51.438;5.470;2022-08-30T09:12:49;7.13;;;3.87;;
13720;SDS011;6932;51.438;5.470;2022-08-30T09:15:22;5.20;;;3.73;;
13720;SDS011;6932;51.438;5.470;2022-08-30T09:20:29;5.27;;;3.40;;
13720;SDS011;6932;51.438;5.470;2022-08-30T09:22:57;5.20;;;3.53;;
13720;SDS011;6932;51.438;5.470;2022-08-30T09:25:34;4.60;;;3.60;;
13720;SDS011;6932;51.438;5.470;2022-08-30T09:28:08;5.00;;;3.30;;
13720;SDS011;6932;51.438;5.470;2022-08-30T09:30:39;4.83;;;3.60;;
13720;SDS011;6932;51.438;5.470;2022-08-30T09:33:29;4.77;;;3.20;;
13720;SDS011;6932;51.438;5.470;2022-08-30T09:35:56;5.73;;;3.13;;
13720;SDS011;6932;51.438;5.470;2022-08-30T09:38:42;6.83;;;3.20;;
13720;SDS011;6932;51.438;5.470;2022-08-30T09:41:25;3.70;;;2.73;;
13720;SDS011;6932;51.438;5.470;2022-08-30T09:44:36;5.33;;;3.10;;
13720;SDS011;6932;51.438;5.470;2022-08-30T09:46:53;4.27;;;3.13;;
13720;SDS011;6932;51.438;5.470;2022-08-30T09:49:40;4.30;;;2.72;;
13720;SDS011;6932;51.438;5.470;2022-08-30T10:00:23;3.72;;;2.22;;
13720;SDS011;6932;51.438;5.470;2022-08-30T10:02:58;4.03;;;2.40;;
13720;SDS011;6932;51.438;5.470;2022-08-30T10:05:45;4.03;;;2.40;;
13720;SDS011;6932;51.438;5.470;2022-08-30T10:11:45;3.33;;;2.20;;
13720;SDS011;6932;51.438;5.470;2022-08-30T10:14:50;3.50;;;2.20;;
13720;SDS011;6932;51.438;5.470;2022-08-30T10:20:52;2.30;;;2.10;;
13720;SDS011;6932;51.438;5.470;2022-08-30T10:24:04;2.90;;;1.95;;
13720;SDS011;6932;51.438;5.470;2022-08-30T10:26:52;4.47;;;2.15;;
13720;SDS011;6932;51.438;5.470;2022-08-30T10:29:43;3.25;;;2.10;;
13720;SDS011;6932;51.438;5.470;2022-08-30T10:35:26;3.90;;;2.10;;
13720;SDS011;6932;51.438;5.470;2022-08-30T10:37:59;4.25;;;2.25;;
13720;SDS011;6932;51.438;5.470;2022-08-30T10:40:36;2.47;;;2.10;;
13720;SDS011;6932;51.438;5.470;2022-08-30T10:43:27;4.78;;;2.17;;
13720;SDS011;6932;51.438;5.470;2022-08-30T10:49:34;2.22;;;1.70;;
13720;SDS011;6932;51.438;5.470;2022-08-30T10:55:20;2.65;;;1.73;;
13720;SDS011;6932;51.438;5.470;2022-08-30T10:58:13;2.00;;;1.80;;
13720;SDS011;6932;51.438;5.470;2022-08-30T11:06:59;2.17;;;1.90;;
13720;SDS011;6932;51.438;5.470;2022-08-30T11:10:00;2.92;;;1.88;;
13720;SDS011;6932;51.438;5.470;2022-08-30T11:15:35;3.10;;;1.67;;
13720;SDS011;6932;51.438;5.470;2022-08-30T11:18:27;4.13;;;1.80;;
13720;SDS011;6932;51.438;5.470;2022-08-30T11:21:18;4.03;;;1.60;;
13720;SDS011;6932;51.438;5.470;2022-08-30T11:23:58;2.80;;;1.92;;
13720;SDS011;6932;51.438;5.470;2022-08-30T11:29:34;2.83;;;1.80;;
13720;SDS011;6932;51.438;5.470;2022-08-30T11:40:07;2.70;;;1.58;;
13720;SDS011;6932;51.438;5.470;2022-08-30T11:52:49;3.30;;;1.80;;
13720;SDS011;6932;51.438;5.470;2022-08-30T12:01:30;3.65;;;1.50;;
13720;SDS011;6932;51.438;5.470;2022-08-30T12:04:02;5.95;;;1.80;;
13720;SDS011;6932;51.438;5.470;2022-08-30T12:17:58;2.28;;;1.58;;
13720;SDS011;6932;51.438;5.470;2022-08-30T12:20:39;4.57;;;1.80;;
13720;SDS011;6932;51.438;5.470;2022-08-30T12:28:51;5.25;;;1.80;;
13720;SDS011;6932;51.438;5.470;2022-08-30T12:31:32;3.90;;;1.60;;
13720;SDS011;6932;51.438;5.470;2022-08-30T12:34:33;3.60;;;1.80;;
13720;SDS011;6932;51.438;5.470;2022-08-30T12:37:28;3.28;;;1.70;;
13720;SDS011;6932;51.438;5.470;2022-08-30T12:40:15;4.40;;;1.92;;
13720;SDS011;6932;51.438;5.470;2022-08-30T12:42:47;3.75;;;1.85;;
13720;SDS011;6932;51.438;5.470;2022-08-30T12:45:29;3.33;;;1.70;;
13720;SDS011;6932;51.438;5.470;2022-08-30T12:48:06;5.00;;;1.60;;
13720;SDS011;6932;51.438;5.470;2022-08-30T12:50:37;6.35;;;1.80;;
13720;SDS011;6932;51.438;5.470;2022-08-30T12:53:12;2.63;;;1.63;;
13720;SDS011;6932;51.438;5.470;2022-08-30T12:56:08;6.00;;;1.70;;
13720;SDS011;6932;51.438;5.470;2022-08-30T12:58:48;3.35;;;1.58;;
13720;SDS011;6932;51.438;5.470;2022-08-30T13:06:39;4.60;;;1.80;;
13720;SDS011;6932;51.438;5.470;2022-08-30T13:09:26;4.10;;;2.05;;
13720;SDS011;6932;51.438;5.470;2022-08-30T13:12:01;2.67;;;1.80;;
13720;SDS011;6932;51.438;5.470;2022-08-30T13:15:07;1.52;;;1.42;;
13720;SDS011;6932;51.438;5.470;2022-08-30T13:17:59;2.83;;;1.70;;
13720;SDS011;6932;51.438;5.470;2022-08-30T13:20:43;2.30;;;1.40;;
13720;SDS011;6932;51.438;5.470;2022-08-30T13:23:11;3.75;;;1.83;;
13720;SDS011;6932;51.438;5.470;2022-08-30T13:25:46;2.72;;;1.75;;
13720;SDS011;6932;51.438;5.470;2022-08-30T13:28:12;3.15;;;1.70;;
13720;SDS011;6932;51.438;5.470;2022-08-30T13:30:38;4.45;;;1.52;;
13720;SDS011;6932;51.438;5.470;2022-08-30T13:33:04;2.92;;;1.92;;
13720;SDS011;6932;51.438;5.470;2022-08-30T13:35:30;3.05;;;1.50;;
13720;SDS011;6932;51.438;5.470;2022-08-30T13:37:57;2.08;;;1.63;;
13720;SDS011;6932;51.438;5.470;2022-08-30T13:40:26;5.53;;;1.70;;
13720;SDS011;6932;51.438;5.470;2022-08-30T13:42:51;4.53;;;2.03;;
13720;SDS011;6932;51.438;5.470;2022-08-30T13:45:18;4.50;;;1.80;;
13720;SDS011;6932;51.438;5.470;2022-08-30T13:47:45;2.83;;;1.75;;
13720;SDS011;6932;51.438;5.470;2022-08-30T13:50:13;3.28;;;1.75;;
13720;SDS011;6932;51.438;5.470;2022-08-30T13:52:40;4.15;;;1.60;;
13720;SDS011;6932;51.438;5.470;2022-08-30T13:55:06;1.63;;;1.40;;
13720;SDS011;6932;51.438;5.470;2022-08-30T13:57:32;2.03;;;1.70;;
13720;SDS011;6932;51.438;5.470;2022-08-30T13:59:58;2.75;;;1.80;;
13720;SDS011;6932;51.438;5.470;2022-08-30T14:02:24;2.10;;;1.70;;
13720;SDS011;6932;51.438;5.470;2022-08-30T14:04:50;3.78;;;1.67;;
13720;SDS011;6932;51.438;5.470;2022-08-30T14:07:15;2.45;;;1.63;;
13720;SDS011;6932;51.438;5.470;2022-08-30T14:09:41;3.58;;;1.67;;
13720;SDS011;6932;51.438;5.470;2022-08-30T14:12:07;2.90;;;1.60;;
13720;SDS011;6932;51.438;5.470;2022-08-30T14:14:33;4.43;;;1.70;;
13720;SDS011;6932;51.438;5.470;2022-08-30T14:17:00;3.08;;;1.73;;
13720;SDS011;6932;51.438;5.470;2022-08-30T14:19:26;4.22;;;1.67;;
13720;SDS011;6932;51.438;5.470;2022-08-30T14:21:52;3.58;;;1.70;;
13720;SDS011;6932;51.438;5.470;2022-08-30T14:24:17;4.18;;;1.70;;
13720;SDS011;6932;51.438;5.470;2022-08-30T14:26:45;3.05;;;1.58;;
13720;SDS011;6932;51.438;5.470;2022-08-30T14:29:16;5.05;;;1.58;;
13720;SDS011;6932;51.438;5.470;2022-08-30T14:31:46;3.10;;;1.70;;
13720;SDS011;6932;51.438;5.470;2022-08-30T14:34:13;5.05;;;1.50;;
13720;SDS011;6932;51.438;5.470;2022-08-30T14:36:41;3.35;;;1.50;;
13720;SDS011;6932;51.438;5.470;2022-08-30T14:39:10;2.55;;;1.50;;
13720;SDS011;6932;51.438;5.470;2022-08-30T14:41:46;3.97;;;1.50;;
13720;SDS011;6932;51.438;5.470;2022-08-30T14:44:17;5.82;;;1.40;;
13720;SDS011;6932;51.438;5.470;2022-08-30T14:46:44;3.10;;;1.40;;
13720;SDS011;6932;51.438;5.470;2022-08-30T14:49:12;2.20;;;1.35;;
13720;SDS011;6932;51.438;5.470;2022-08-30T14:51:40;3.05;;;1.50;;
13720;SDS011;6932;51.438;5.470;2022-08-30T14:54:07;2.08;;;1.50;;
13720;SDS011;6932;51.438;5.470;2022-08-30T14:56:35;4.72;;;1.60;;
13720;SDS011;6932;51.438;5.470;2022-08-30T14:59:05;2.17;;;1.50;;
13720;SDS011;6932;51.438;5.470;2022-08-30T15:01:33;2.22;;;1.40;;
13720;SDS011;6932;51.438;5.470;2022-08-30T15:03:59;3.28;;;1.65;;
13720;SDS011;6932;51.438;5.470;2022-08-30T15:06:25;4.07;;;1.48;;
13720;SDS011;6932;51.438;5.470;2022-08-30T15:08:53;4.30;;;1.67;;
13720;SDS011;6932;51.438;5.470;2022-08-30T15:11:21;3.38;;;1.80;;
13720;SDS011;6932;51.438;5.470;2022-08-30T15:13:50;6.13;;;1.52;;
13720;SDS011;6932;51.438;5.470;2022-08-30T15:16:22;5.38;;;1.60;;
13720;SDS011;6932;51.438;5.470;2022-08-30T15:18:56;3.22;;;1.58;;
13720;SDS011;6932;51.438;5.470;2022-08-30T15:21:23;4.50;;;1.80;;
13720;SDS011;6932;51.438;5.470;2022-08-30T15:23:53;2.75;;;1.58;;
13720;SDS011;6932;51.438;5.470;2022-08-30T15:26:19;3.28;;;1.70;;
13720;SDS011;6932;51.438;5.470;2022-08-30T15:28:45;3.35;;;1.95;;
13720;SDS011;6932;51.438;5.470;2022-08-30T15:31:11;4.05;;;1.60;;
13720;SDS011;6932;51.438;5.470;2022-08-30T15:33:37;3.63;;;1.60;;
13720;SDS011;6932;51.438;5.470;2022-08-30T15:36:04;3.50;;;1.70;;
13720;SDS011;6932;51.438;5.470;2022-08-30T15:38:32;3.20;;;1.63;;
13720;SDS011;6932;51.438;5.470;2022-08-30T15:41:00;1.92;;;1.50;;
13720;SDS011;6932;51.438;5.470;2022-08-30T15:43:32;9.65;;;1.70;;
13720;SDS011;6932;51.438;5.470;2022-08-30T15:46:06;4.38;;;1.85;;
13720;SDS011;6932;51.438;5.470;2022-08-30T15:48:51;5.47;;;1.95;;
13720;SDS011;6932;51.438;5.470;2022-08-30T15:51:22;3.13;;;1.67;;
13720;SDS011;6932;51.438;5.470;2022-08-30T15:53:50;2.33;;;1.60;;
13720;SDS011;6932;51.438;5.470;2022-08-30T15:56:17;2.13;;;1.70;;
13720;SDS011;6932;51.438;5.470;2022-08-30T15:58:43;3.45;;;1.73;;
13720;SDS011;6932;51.438;5.470;2022-08-30T16:01:09;4.35;;;2.00;;
13720;SDS011;6932;51.438;5.470;2022-08-30T16:03:37;2.45;;;1.30;;
13720;SDS011;6932;51.438;5.470;2022-08-30T16:06:10;2.60;;;1.60;;
13720;SDS011;6932;51.438;5.470;2022-08-30T16:08:45;4.32;;;1.60;;
13720;SDS011;6932;51.438;5.470;2022-08-30T16:11:12;5.18;;;1.73;;
13720;SDS011;6932;51.438;5.470;2022-08-30T16:13:40;3.65;;;1.50;;
13720;SDS011;6932;51.438;5.470;2022-08-30T16:16:07;3.85;;;1.40;;
13720;SDS011;6932;51.438;5.470;2022-08-30T16:18:34;5.18;;;1.50;;
13720;SDS011;6932;51.438;5.470;2022-08-30T16:21:05;4.60;;;1.52;;
13720;SDS011;6932;51.438;5.470;2022-08-30T16:23:44;3.65;;;1.40;;
13720;SDS011;6932;51.438;5.470;2022-08-30T16:26:12;3.90;;;1.45;;
13720;SDS011;6932;51.438;5.470;2022-08-30T16:28:42;3.35;;;1.70;;
13720;SDS011;6932;51.438;5.470;2022-08-30T16:31:09;1.90;;;1.33;;
13720;SDS011;6932;51.438;5.470;2022-08-30T16:33:35;3.08;;;1.30;;
13720;SDS011;6932;51.438;5.470;2022-08-30T16:36:01;4.40;;;2.03;;
13720;SDS011;6932;51.438;5.470;2022-08-30T16:38:29;3.35;;;1.65;;
13720;SDS011;6932;51.438;5.470;2022-08-30T16:40:55;3.35;;;1.67;;
13720;SDS011;6932;51.438;5.470;2022-08-30T16:43:21;3.50;;;1.58;;
13720;SDS011;6932;51.438;5.470;2022-08-30T16:45:47;1.80;;;1.40;;
13720;SDS011;6932;51.438;5.470;2022-08-30T16:48:13;4.50;;;1.67;;
13720;SDS011;6932;51.438;5.470;2022-08-30T16:50:41;2.60;;;1.60;;
13720;SDS011;6932;51.438;5.470;2022-08-30T16:53:10;4.05;;;1.60;;
13720;SDS011;6932;51.438;5.470;2022-08-30T16:55:37;2.90;;;1.50;;
13720;SDS011;6932;51.438;5.470;2022-08-30T16:58:04;5.32;;;1.80;;
13720;SDS011;6932;51.438;5.470;2022-08-30T17:00:34;2.05;;;1.40;;
13720;SDS011;6932;51.438;5.470;2022-08-30T17:03:02;3.60;;;1.77;;